Time;durP1;ratioP1;P1;durP2;ratioP2;P2;SDS_P1;SDS_P2;PMS_P1;PMS_P2;Temp;Humidity;BMP_temperature;BMP_pressure;BME280_temperature;BME280_humidity;BME280_pressure;Samples;Min_cycle;Max_cycle;Signal;HPM_P1;HPM_P2
2022/11/05 00:10:43;;;;;;;13.67;8.30;;;;;;;;;;5072734;28;20509;-45
2022/11/05 00:19:05;;;;;;;9.73;7.30;;;;;;;;;;5079487;28;20503;-45
2022/11/05 00:27:18;;;;;;;8.90;7.00;;;;;;;;;;5073981;28;20812;-44
2022/11/05 00:29:44;;;;;;;10.07;8.03;;;;;;;;;;5072609;28;20507;-44
2022/11/05 00:32:10;;;;;;;8.60;7.13;;;;;;;;;;5072486;28;20666;-45
2022/11/05 00:34:36;;;;;;;9.67;7.87;;;;;;;;;;5072685;28;20280;-45
2022/11/05 00:37:02;;;;;;;9.13;7.40;;;;;;;;;;5072359;28;20445;-44
2022/11/05 00:39:28;;;;;;;10.40;8.00;;;;;;;;;;5072164;28;20637;-44
2022/11/05 00:50:10;;;;;;;10.17;8.50;;;;;;;;;;5071208;28;20930;-45
2022/11/05 00:52:54;;;;;;;11.67;7.93;;;;;;;;;;5072597;28;20649;-44
2022/11/05 00:55:20;;;;;;;13.60;8.53;;;;;;;;;;5072321;28;20488;-45
2022/11/05 00:57:46;;;;;;;13.17;8.97;;;;;;;;;;5070306;28;20462;-44
2022/11/05 01:00:14;;;;;;;9.63;8.07;;;;;;;;;;5070284;28;20911;-44
2022/11/05 01:02:41;;;;;;;10.77;8.73;;;;;;;;;;5071988;28;20238;-44
2022/11/05 01:05:07;;;;;;;12.23;8.37;;;;;;;;;;5071819;28;20446;-44
2022/11/05 01:07:34;;;;;;;12.93;9.57;;;;;;;;;;5071260;28;20948;-44
2022/11/05 01:10:00;;;;;;;13.40;9.07;;;;;;;;;;5071746;28;20525;-43
2022/11/05 01:12:26;;;;;;;9.00;7.60;;;;;;;;;;5071378;28;20437;-44
2022/11/05 01:14:52;;;;;;;13.57;9.57;;;;;;;;;;5071372;28;20474;-44
2022/11/05 01:17:19;;;;;;;12.03;8.33;;;;;;;;;;5072133;28;20445;-44
2022/11/05 01:19:45;;;;;;;10.87;8.53;;;;;;;;;;5071440;28;20434;-44
2022/11/05 01:22:12;;;;;;;11.30;8.60;;;;;;;;;;5072067;28;20540;-44
2022/11/05 01:24:38;;;;;;;14.33;8.83;;;;;;;;;;5071501;28;20447;-44
2022/11/05 01:27:04;;;;;;;11.97;8.77;;;;;;;;;;5071743;28;20452;-44
2022/11/05 01:29:30;;;;;;;14.03;8.70;;;;;;;;;;5071820;28;20632;-44
2022/11/05 01:31:56;;;;;;;15.17;10.17;;;;;;;;;;5071307;28;21011;-44
2022/11/05 01:34:23;;;;;;;12.07;9.03;;;;;;;;;;5071377;28;20584;-45
2022/11/05 01:36:49;;;;;;;13.67;9.27;;;;;;;;;;5071751;28;20604;-44
2022/11/05 01:39:15;;;;;;;14.00;9.60;;;;;;;;;;5071789;28;20491;-43
2022/11/05 01:41:41;;;;;;;13.87;9.07;;;;;;;;;;5071549;28;20199;-44
2022/11/05 01:44:22;;;;;;;12.03;8.73;;;;;;;;;;5071670;28;20253;-44
2022/11/05 01:46:48;;;;;;;10.37;8.67;;;;;;;;;;5071258;28;20492;-44
2022/11/05 01:49:18;;;;;;;16.63;8.87;;;;;;;;;;5070568;28;20484;-44
2022/11/05 01:51:47;;;;;;;14.20;9.40;;;;;;;;;;5070747;28;20484;-44
2022/11/05 01:54:14;;;;;;;14.47;9.80;;;;;;;;;;5070380;28;20549;-44
2022/11/05 01:56:42;;;;;;;11.47;8.70;;;;;;;;;;5071171;28;20460;-43
2022/11/05 01:59:10;;;;;;;14.53;9.37;;;;;;;;;;5071317;28;20430;-43
2022/11/05 02:01:36;;;;;;;12.17;9.10;;;;;;;;;;5071479;28;20954;-43
2022/11/05 02:04:04;;;;;;;10.00;7.70;;;;;;;;;;5071211;28;20426;-44
2022/11/05 02:06:32;;;;;;;12.80;8.83;;;;;;;;;;5071550;28;20446;-44
2022/11/05 02:09:01;;;;;;;11.13;9.13;;;;;;;;;;5071156;28;20461;-44
2022/11/05 02:11:27;;;;;;;10.63;8.63;;;;;;;;;;5071347;28;20498;-44
2022/11/05 02:13:53;;;;;;;13.53;9.10;;;;;;;;;;5071035;28;20465;-44
2022/11/05 02:16:27;;;;;;;12.50;9.17;;;;;;;;;;5071288;28;20275;-44
2022/11/05 02:18:57;;;;;;;13.37;9.33;;;;;;;;;;5070962;28;20855;-44
2022/11/05 02:21:35;;;;;;;12.70;9.83;;;;;;;;;;5071268;28;20927;-44
2022/11/05 02:24:28;;;;;;;12.77;9.97;;;;;;;;;;5071793;28;20461;-44
2022/11/05 02:27:18;;;;;;;13.63;9.73;;;;;;;;;;5039181;28;20449;-44
2022/11/05 02:30:04;;;;;;;15.93;9.80;;;;;;;;;;5075485;28;20434;-44
2022/11/05 02:32:36;;;;;;;9.83;7.93;;;;;;;;;;5075088;28;20944;-44
2022/11/05 02:35:07;;;;;;;12.60;8.73;;;;;;;;;;5075093;28;20481;-44
2022/11/05 02:37:39;;;;;;;13.77;9.90;;;;;;;;;;5075180;28;20422;-44
2022/11/05 02:40:10;;;;;;;11.37;9.03;;;;;;;;;;5074846;28;20434;-44
2022/11/05 02:42:40;;;;;;;11.73;8.73;;;;;;;;;;5074963;28;20445;-44
2022/11/05 02:45:10;;;;;;;12.53;8.87;;;;;;;;;;5074923;28;20491;-44
2022/11/05 02:47:41;;;;;;;10.60;8.93;;;;;;;;;;5074987;28;20468;-44
2022/11/05 02:50:13;;;;;;;11.20;8.83;;;;;;;;;;5074633;28;20959;-44
2022/11/05 02:52:42;;;;;;;11.83;9.67;;;;;;;;;;5074053;28;20915;-44
2022/11/05 02:55:13;;;;;;;15.87;9.00;;;;;;;;;;5074565;28;20581;-44
2022/11/05 02:57:43;;;;;;;18.53;10.30;;;;;;;;;;5074730;28;20924;-44
2022/11/05 03:00:24;;;;;;;13.40;10.27;;;;;;;;;;5074555;28;20438;-44
2022/11/05 03:02:52;;;;;;;16.90;9.67;;;;;;;;;;5074357;28;21040;-44
2022/11/05 03:05:18;;;;;;;15.90;10.67;;;;;;;;;;5074538;28;20499;-45
2022/11/05 03:07:50;;;;;;;14.57;10.07;;;;;;;;;;5074228;28;20465;-44
2022/11/05 03:10:27;;;;;;;17.17;11.00;;;;;;;;;;5074322;28;20438;-44
2022/11/05 03:13:01;;;;;;;14.33;11.23;;;;;;;;;;5074302;28;20453;-44
2022/11/05 03:15:34;;;;;;;16.90;10.50;;;;;;;;;;5074217;28;20469;-44
2022/11/05 03:18:04;;;;;;;16.97;11.07;;;;;;;;;;5071349;28;20464;-44
2022/11/05 03:20:35;;;;;;;13.43;10.70;;;;;;;;;;5074080;28;20449;-45
2022/11/05 03:23:05;;;;;;;15.60;10.43;;;;;;;;;;5074373;28;20443;-45
2022/11/05 03:25:31;;;;;;;14.00;9.83;;;;;;;;;;5074214;28;20437;-45
2022/11/05 03:27:59;;;;;;;16.17;10.53;;;;;;;;;;5074165;28;20438;-44
2022/11/05 03:30:25;;;;;;;15.63;10.47;;;;;;;;;;5074265;28;20469;-44
2022/11/05 03:32:56;;;;;;;17.00;10.87;;;;;;;;;;5073632;28;20511;-45
2022/11/05 03:35:25;;;;;;;17.67;10.83;;;;;;;;;;5073310;28;20503;-44
2022/11/05 03:37:54;;;;;;;13.43;10.20;;;;;;;;;;5073554;28;20452;-44
2022/11/05 03:40:22;;;;;;;15.00;10.50;;;;;;;;;;5073691;28;20440;-45
2022/11/05 03:42:50;;;;;;;11.53;10.23;;;;;;;;;;5073953;28;20469;-44
2022/11/05 03:45:17;;;;;;;16.17;10.50;;;;;;;;;;5073929;28;20425;-44
2022/11/05 03:47:45;;;;;;;16.70;11.03;;;;;;;;;;5073883;28;21034;-44
2022/11/05 03:50:15;;;;;;;16.73;10.30;;;;;;;;;;5073563;28;20584;-45
2022/11/05 03:52:45;;;;;;;14.07;10.60;;;;;;;;;;5072941;28;20932;-44
2022/11/05 03:55:12;;;;;;;15.83;10.13;;;;;;;;;;5073296;28;20521;-44
2022/11/05 03:57:40;;;;;;;15.63;10.73;;;;;;;;;;5073627;28;20450;-44
2022/11/05 04:00:08;;;;;;;16.03;11.23;;;;;;;;;;5073332;28;20529;-44
2022/11/05 04:02:34;;;;;;;14.17;9.57;;;;;;;;;;5072988;28;20437;-44
2022/11/05 04:05:00;;;;;;;12.80;9.80;;;;;;;;;;5073469;28;20430;-44
2022/11/05 04:18:26;;;;;;;11.50;9.07;;;;;;;;;;5073143;28;20413;-44
2022/11/05 04:26:22;;;;;;;13.43;8.60;;;;;;;;;;5073090;28;20998;-44
2022/11/05 04:31:34;;;;;;;9.70;8.00;;;;;;;;;;5072811;28;20421;-45
2022/11/05 04:34:00;;;;;;;13.03;9.80;;;;;;;;;;5072549;28;20480;-44
2022/11/05 04:36:26;;;;;;;16.27;9.63;;;;;;;;;;5072922;28;20449;-45
2022/11/05 04:38:52;;;;;;;13.93;9.60;;;;;;;;;;5072759;28;20438;-44
2022/11/05 04:41:18;;;;;;;12.40;9.67;;;;;;;;;;5072791;28;20440;-44
2022/11/05 04:43:45;;;;;;;11.90;8.57;;;;;;;;;;5072898;28;20199;-45
2022/11/05 04:46:11;;;;;;;12.00;9.13;;;;;;;;;;5072395;28;20491;-45
2022/11/05 04:48:37;;;;;;;14.43;9.33;;;;;;;;;;5072551;28;20932;-45
2022/11/05 04:51:04;;;;;;;13.87;9.67;;;;;;;;;;5071332;28;21075;-45
2022/11/05 04:53:30;;;;;;;11.63;9.13;;;;;;;;;;5072768;28;20528;-45
2022/11/05 04:56:08;;;;;;;12.97;9.20;;;;;;;;;;5072302;28;20470;-45
2022/11/05 04:58:37;;;;;;;10.13;8.53;;;;;;;;;;5072581;28;20484;-45
2022/11/05 05:01:05;;;;;;;9.93;8.40;;;;;;;;;;5072502;28;20472;-45
2022/11/05 05:03:31;;;;;;;11.57;8.40;;;;;;;;;;5072481;28;20434;-45
2022/11/05 05:05:58;;;;;;;11.80;8.77;;;;;;;;;;5071917;28;20505;-45
2022/11/05 05:08:24;;;;;;;9.37;7.77;;;;;;;;;;5071266;28;20454;-45
2022/11/05 05:10:50;;;;;;;10.13;7.97;;;;;;;;;;5072025;28;20440;-45
2022/11/05 05:13:16;;;;;;;8.53;7.07;;;;;;;;;;5071996;28;20434;-45
2022/11/05 05:15:42;;;;;;;7.27;6.57;;;;;;;;;;5071922;28;20477;-45
2022/11/05 05:18:09;;;;;;;8.17;6.90;;;;;;;;;;5072025;28;20794;-45
2022/11/05 05:23:20;;;;;;;8.47;6.97;;;;;;;;;;5071992;28;21213;-45
2022/11/05 05:25:46;;;;;;;11.20;8.37;;;;;;;;;;5071871;28;20438;-45
2022/11/05 05:28:12;;;;;;;12.13;8.57;;;;;;;;;;5071887;28;20195;-45
2022/11/05 05:30:38;;;;;;;13.77;9.17;;;;;;;;;;5071921;28;20434;-45
2022/11/05 05:33:04;;;;;;;14.93;9.53;;;;;;;;;;5071715;28;20466;-45
2022/11/05 05:35:31;;;;;;;15.00;9.23;;;;;;;;;;5071368;28;20978;-45
2022/11/05 05:37:57;;;;;;;18.20;10.77;;;;;;;;;;5071795;28;20860;-45
2022/11/05 05:40:23;;;;;;;12.60;9.93;;;;;;;;;;5071615;28;20920;-45
2022/11/05 05:42:52;;;;;;;13.60;10.90;;;;;;;;;;5071815;28;20454;-45
2022/11/05 05:45:18;;;;;;;14.47;10.47;;;;;;;;;;5071718;28;20436;-43
2022/11/05 05:47:44;;;;;;;15.77;11.27;;;;;;;;;;5071663;28;20554;-45
2022/11/05 05:50:10;;;;;;;16.63;10.10;;;;;;;;;;5071252;28;20207;-45
2022/11/05 05:52:37;;;;;;;18.33;11.03;;;;;;;;;;5071722;28;20191;-45
2022/11/05 05:55:04;;;;;;;17.37;12.07;;;;;;;;;;5071508;28;20524;-45
2022/11/05 05:57:30;;;;;;;19.03;13.33;;;;;;;;;;5071552;28;20430;-45
2022/11/05 05:59:56;;;;;;;19.60;13.10;;;;;;;;;;5071169;28;20434;-45
2022/11/05 06:02:22;;;;;;;19.47;12.60;;;;;;;;;;5071305;28;20658;-45
2022/11/05 06:04:48;;;;;;;18.97;12.40;;;;;;;;;;5071501;28;20219;-45
2022/11/05 06:07:14;;;;;;;19.80;13.90;;;;;;;;;;5071413;28;20429;-45
2022/11/05 06:09:41;;;;;;;22.77;13.40;;;;;;;;;;5071175;28;20477;-45
2022/11/05 06:12:08;;;;;;;19.37;12.10;;;;;;;;;;5071138;28;21320;-45
2022/11/05 06:14:34;;;;;;;18.73;12.57;;;;;;;;;;5071278;28;20816;-45
2022/11/05 06:17:00;;;;;;;18.57;13.07;;;;;;;;;;5071197;28;20837;-45
2022/11/05 06:19:26;;;;;;;18.27;12.70;;;;;;;;;;5071442;28;20454;-45
2022/11/05 06:21:52;;;;;;;18.67;12.90;;;;;;;;;;5071373;28;20434;-45
2022/11/05 06:24:18;;;;;;;15.93;11.63;;;;;;;;;;5071078;28;20438;-45
2022/11/05 06:26:45;;;;;;;20.67;13.00;;;;;;;;;;5070871;28;20465;-45
2022/11/05 06:29:11;;;;;;;21.40;11.90;;;;;;;;;;5071221;28;20433;-45
2022/11/05 06:31:37;;;;;;;15.50;11.73;;;;;;;;;;5071265;28;20430;-45
2022/11/05 06:34:03;;;;;;;16.10;11.30;;;;;;;;;;5071046;28;20769;-45
2022/11/05 06:36:29;;;;;;;16.20;11.77;;;;;;;;;;5071230;28;20483;-45
2022/11/05 06:38:55;;;;;;;18.17;11.63;;;;;;;;;;5071173;28;20441;-45
2022/11/05 06:41:21;;;;;;;18.80;13.13;;;;;;;;;;5071333;28;20436;-45
2022/11/05 06:43:49;;;;;;;16.77;11.83;;;;;;;;;;5070991;28;20898;-45
2022/11/05 06:46:15;;;;;;;17.70;13.20;;;;;;;;;;5071082;28;20905;-45
2022/11/05 06:48:41;;;;;;;19.30;13.30;;;;;;;;;;5071045;28;21139;-45
2022/11/05 06:51:07;;;;;;;20.40;14.03;;;;;;;;;;5070777;28;20516;-45
2022/11/05 06:53:33;;;;;;;24.23;13.07;;;;;;;;;;5071037;28;20437;-45
2022/11/05 06:56:01;;;;;;;24.37;13.90;;;;;;;;;;5070891;28;20508;-45
2022/11/05 06:58:27;;;;;;;23.17;13.50;;;;;;;;;;5070923;28;20446;-45
2022/11/05 07:00:54;;;;;;;19.17;13.10;;;;;;;;;;5070826;28;20487;-45
2022/11/05 07:03:20;;;;;;;20.60;13.07;;;;;;;;;;5070690;28;20559;-45
2022/11/05 07:05:47;;;;;;;51.80;23.40;;;;;;;;;;5070871;28;20537;-45
2022/11/05 07:08:13;;;;;;;61.43;26.53;;;;;;;;;;5070827;28;20310;-45
2022/11/05 07:10:40;;;;;;;56.87;23.60;;;;;;;;;;5070758;28;20521;-45
2022/11/05 07:13:06;;;;;;;70.03;31.50;;;;;;;;;;5074328;28;20437;-45
2022/11/05 07:15:32;;;;;;;32.50;17.20;;;;;;;;;;5074097;28;20485;-45
2022/11/05 07:18:00;;;;;;;27.40;17.37;;;;;;;;;;5073915;28;20834;-45
2022/11/05 07:20:26;;;;;;;24.23;14.87;;;;;;;;;;5074633;28;20433;-45
2022/11/05 07:23:00;;;;;;;20.93;14.07;;;;;;;;;;5074258;28;20437;-45
2022/11/05 07:25:26;;;;;;;27.07;15.13;;;;;;;;;;5073628;28;20438;-45
2022/11/05 07:27:52;;;;;;;23.83;13.73;;;;;;;;;;5072932;28;20499;-45
2022/11/05 07:30:18;;;;;;;17.10;11.83;;;;;;;;;;5073345;28;20446;-45
2022/11/05 07:32:44;;;;;;;20.13;13.33;;;;;;;;;;5074282;28;20432;-45
2022/11/05 07:35:11;;;;;;;16.90;11.50;;;;;;;;;;5074119;28;20466;-45
2022/11/05 07:37:44;;;;;;;13.47;10.83;;;;;;;;;;5073216;28;20434;-45
2022/11/05 07:40:10;;;;;;;13.13;10.20;;;;;;;;;;5073739;28;20477;-45
2022/11/05 07:42:36;;;;;;;11.30;9.00;;;;;;;;;;5073841;28;20517;-45
2022/11/05 07:45:02;;;;;;;10.90;8.40;;;;;;;;;;5073693;28;20859;-45
2022/11/05 07:47:28;;;;;;;13.13;9.17;;;;;;;;;;5073598;28;20199;-45
2022/11/05 07:49:54;;;;;;;10.03;8.00;;;;;;;;;;5073405;28;20196;-45
2022/11/05 07:52:22;;;;;;;11.63;8.43;;;;;;;;;;5073552;28;20207;-45
2022/11/05 07:54:48;;;;;;;9.53;8.53;;;;;;;;;;5073574;28;20228;-45
2022/11/05 07:57:14;;;;;;;8.10;7.20;;;;;;;;;;5073615;28;20199;-45
2022/11/05 07:59:40;;;;;;;9.10;6.57;;;;;;;;;;5073428;28;20206;-45
2022/11/05 08:02:08;;;;;;;8.87;5.77;;;;;;;;;;5073471;28;20235;-45
2022/11/05 08:04:34;;;;;;;12.00;6.50;;;;;;;;;;5073292;28;20195;-45
2022/11/05 08:07:00;;;;;;;9.03;6.40;;;;;;;;;;5073275;28;20294;-45
2022/11/05 08:09:27;;;;;;;7.37;5.90;;;;;;;;;;5072639;28;20298;-45
2022/11/05 08:11:53;;;;;;;9.73;6.37;;;;;;;;;;5073473;28;20227;-45
2022/11/05 08:14:19;;;;;;;7.90;5.63;;;;;;;;;;5073365;28;20262;-45
2022/11/05 08:16:45;;;;;;;6.80;5.57;;;;;;;;;;5072416;28;20605;-45
2022/11/05 08:19:11;;;;;;;9.50;6.50;;;;;;;;;;5073029;28;20207;-46
2022/11/05 08:21:37;;;;;;;7.37;5.63;;;;;;;;;;5073113;28;20196;-45
2022/11/05 08:24:03;;;;;;;8.07;5.67;;;;;;;;;;5072574;28;20195;-45
2022/11/05 08:26:31;;;;;;;10.87;6.63;;;;;;;;;;5073092;28;20286;-45
2022/11/05 08:28:59;;;;;;;9.33;5.60;;;;;;;;;;5072740;28;20605;-45
2022/11/05 08:31:25;;;;;;;8.10;5.87;;;;;;;;;;5073047;28;20206;-45
2022/11/05 08:33:51;;;;;;;6.80;5.40;;;;;;;;;;5072878;28;20235;-45
2022/11/05 08:36:17;;;;;;;8.77;5.93;;;;;;;;;;5071958;28;20219;-45
2022/11/05 08:38:43;;;;;;;6.40;5.63;;;;;;;;;;5072842;28;20200;-45
2022/11/05 08:41:09;;;;;;;6.33;5.43;;;;;;;;;;5072584;28;20206;-45
2022/11/05 08:43:36;;;;;;;9.90;5.10;;;;;;;;;;5072631;28;20202;-45
2022/11/05 08:46:02;;;;;;;6.17;5.10;;;;;;;;;;5072023;28;20302;-45
2022/11/05 08:48:28;;;;;;;7.77;5.33;;;;;;;;;;5072664;28;20290;-45
2022/11/05 08:50:54;;;;;;;5.10;4.60;;;;;;;;;;5072291;28;20274;-45
2022/11/05 08:53:20;;;;;;;7.10;5.27;;;;;;;;;;5072146;28;20203;-45
2022/11/05 08:55:48;;;;;;;7.00;4.80;;;;;;;;;;5072388;28;20310;-45
2022/11/05 08:58:15;;;;;;;6.03;5.20;;;;;;;;;;5072114;28;20670;-45
2022/11/05 09:00:44;;;;;;;5.77;4.80;;;;;;;;;;5072248;28;20297;-45
2022/11/05 09:03:10;;;;;;;6.27;5.50;;;;;;;;;;5072236;28;20207;-45
2022/11/05 09:05:38;;;;;;;6.53;5.30;;;;;;;;;;5072147;28;20191;-45
2022/11/05 09:08:04;;;;;;;6.00;5.40;;;;;;;;;;5071450;28;20298;-45
2022/11/05 09:10:30;;;;;;;6.20;5.60;;;;;;;;;;5071666;28;20546;-45
2022/11/05 09:12:56;;;;;;;6.00;5.50;;;;;;;;;;5070579;28;20201;-45
2022/11/05 09:15:23;;;;;;;7.13;6.27;;;;;;;;;;5070918;28;20310;-45
2022/11/05 09:17:50;;;;;;;7.40;5.73;;;;;;;;;;5071735;28;20206;-45
2022/11/05 09:20:16;;;;;;;6.33;5.73;;;;;;;;;;5071892;28;20195;-45
2022/11/05 09:22:42;;;;;;;6.27;5.57;;;;;;;;;;5071866;28;20196;-45
2022/11/05 09:25:09;;;;;;;6.17;5.53;;;;;;;;;;5071625;28;20193;-45
2022/11/05 09:27:35;;;;;;;6.83;5.30;;;;;;;;;;5071969;28;20290;-45
2022/11/05 09:30:01;;;;;;;5.60;5.10;;;;;;;;;;5071601;28;20224;-46
2022/11/05 09:32:27;;;;;;;5.77;5.10;;;;;;;;;;5071777;28;20199;-46
2022/11/05 09:34:54;;;;;;;5.33;4.83;;;;;;;;;;5070780;28;20235;-46
2022/11/05 09:37:20;;;;;;;4.87;4.43;;;;;;;;;;5071649;28;20298;-47
2022/11/05 09:39:46;;;;;;;5.40;4.90;;;;;;;;;;5071670;28;20196;-45
2022/11/05 09:42:15;;;;;;;6.57;5.33;;;;;;;;;;5070853;28;20210;-47
2022/11/05 09:44:43;;;;;;;5.67;5.07;;;;;;;;;;5071622;28;20287;-46
2022/11/05 09:47:12;;;;;;;6.00;5.23;;;;;;;;;;5071294;28;20201;-46
2022/11/05 09:49:39;;;;;;;6.63;5.10;;;;;;;;;;5071759;28;20211;-46
2022/11/05 09:52:11;;;;;;;6.37;5.70;;;;;;;;;;5070323;28;20276;-47
2022/11/05 09:54:39;;;;;;;6.97;5.87;;;;;;;;;;5071344;28;20322;-46
2022/11/05 09:57:07;;;;;;;5.87;5.23;;;;;;;;;;5070965;28;20245;-46
2022/11/05 09:59:35;;;;;;;6.43;5.10;;;;;;;;;;5070946;28;20241;-46
2022/11/05 10:02:03;;;;;;;5.93;5.30;;;;;;;;;;5071630;28;20188;-46
2022/11/05 10:04:30;;;;;;;5.20;4.70;;;;;;;;;;5071449;28;20200;-46
2022/11/05 10:06:58;;;;;;;5.87;5.00;;;;;;;;;;5071422;28;20208;-46
2022/11/05 10:09:27;;;;;;;7.70;5.20;;;;;;;;;;5069783;28;20229;-47
2022/11/05 10:11:55;;;;;;;7.10;5.07;;;;;;;;;;5071407;28;20201;-46
2022/11/05 10:14:22;;;;;;;6.10;5.07;;;;;;;;;;5069362;28;20278;-46
2022/11/05 10:16:53;;;;;;;6.30;4.80;;;;;;;;;;5070378;28;20210;-46
2022/11/05 10:19:26;;;;;;;5.73;4.87;;;;;;;;;;5071665;28;20475;-46
2022/11/05 10:21:54;;;;;;;7.17;5.63;;;;;;;;;;5071900;28;20202;-46
2022/11/05 10:24:20;;;;;;;7.47;5.90;;;;;;;;;;5071512;28;20210;-47
2022/11/05 10:26:49;;;;;;;6.63;5.33;;;;;;;;;;5071644;28;20197;-46
2022/11/05 10:29:17;;;;;;;6.77;5.43;;;;;;;;;;5071711;28;20205;-46
2022/11/05 10:31:43;;;;;;;6.53;5.90;;;;;;;;;;5071585;28;20208;-46
2022/11/05 10:34:12;;;;;;;9.05;5.50;;;;;;;;;;5071353;28;20207;-46
2022/11/05 10:36:38;;;;;;;6.87;5.60;;;;;;;;;;5071602;28;20271;-45
2022/11/05 10:39:10;;;;;;;6.17;5.20;;;;;;;;;;5071252;28;20249;-46
2022/11/05 10:41:42;;;;;;;7.07;5.30;;;;;;;;;;5071278;28;20656;-46
2022/11/05 10:44:15;;;;;;;7.33;5.80;;;;;;;;;;5071438;28;20291;-49
2022/11/05 10:46:43;;;;;;;9.23;6.40;;;;;;;;;;5074718;28;20544;-46
2022/11/05 10:49:17;;;;;;;6.43;5.83;;;;;;;;;;5075318;28;20202;-45
2022/11/05 10:51:43;;;;;;;10.57;6.57;;;;;;;;;;5075217;28;20235;-46
2022/11/05 10:54:13;;;;;;;8.87;7.10;;;;;;;;;;5072187;28;20192;-45
2022/11/05 10:56:40;;;;;;;7.73;6.27;;;;;;;;;;5074233;28;20194;-48
2022/11/05 10:59:18;;;;;;;6.47;5.87;;;;;;;;;;5073817;28;20231;-46
2022/11/05 11:01:45;;;;;;;6.80;6.10;;;;;;;;;;5074562;28;20242;-46
2022/11/05 11:04:15;;;;;;;7.63;6.47;;;;;;;;;;5074357;28;20298;-46
2022/11/05 11:06:44;;;;;;;7.03;6.23;;;;;;;;;;5074461;28;20225;-47
2022/11/05 11:09:18;;;;;;;8.40;6.27;;;;;;;;;;5074371;28;20222;-46
2022/11/05 11:11:44;;;;;;;6.80;5.67;;;;;;;;;;5074640;28;20233;-46
2022/11/05 11:14:18;;;;;;;8.70;6.30;;;;;;;;;;5074311;28;20203;-46
2022/11/05 11:16:46;;;;;;;8.13;6.30;;;;;;;;;;5074395;28;20561;-46
2022/11/05 11:19:23;;;;;;;9.27;6.60;;;;;;;;;;5074133;28;20211;-46
2022/11/05 11:22:10;;;;;;;7.20;6.50;;;;;;;;;;5073638;28;20203;-46
2022/11/05 11:24:37;;;;;;;7.93;6.97;;;;;;;;;;5074004;28;20196;-46
2022/11/05 11:27:06;;;;;;;9.47;7.17;;;;;;;;;;5074078;28;20269;-46
2022/11/05 11:29:38;;;;;;;7.97;6.93;;;;;;;;;;5074304;28;20210;-45
2022/11/05 11:32:10;;;;;;;9.03;6.33;;;;;;;;;;5074195;28;20203;-46
2022/11/05 11:34:38;;;;;;;7.20;6.47;;;;;;;;;;5074085;28;20226;-45
2022/11/05 11:37:06;;;;;;;7.40;6.20;;;;;;;;;;5074175;28;20191;-45
2022/11/05 11:39:32;;;;;;;7.70;6.33;;;;;;;;;;5073931;28;20219;-46
2022/11/05 11:41:59;;;;;;;8.53;6.20;;;;;;;;;;5074173;28;20200;-46
2022/11/05 11:44:28;;;;;;;7.97;5.73;;;;;;;;;;5073854;28;20199;-46
2022/11/05 11:46:55;;;;;;;6.70;5.80;;;;;;;;;;5073711;28;20666;-46
2022/11/05 11:49:37;;;;;;;8.30;6.00;;;;;;;;;;5073784;28;20206;-46
2022/11/05 11:52:05;;;;;;;9.33;6.33;;;;;;;;;;5073605;28;20318;-46
2022/11/05 11:54:32;;;;;;;7.07;6.37;;;;;;;;;;5073597;28;20231;-47
2022/11/05 11:56:58;;;;;;;8.93;6.73;;;;;;;;;;5073121;28;20261;-47
2022/11/05 11:59:25;;;;;;;9.37;6.30;;;;;;;;;;5073640;28;20737;-46
2022/11/05 12:02:18;;;;;;;8.17;6.50;;;;;;;;;;5073524;28;20249;-47
2022/11/05 12:04:55;;;;;;;8.93;6.83;;;;;;;;;;5073461;28;20559;-47
2022/11/05 12:07:27;;;;;;;8.77;6.57;;;;;;;;;;5073475;28;20252;-47
2022/11/05 12:09:57;;;;;;;8.07;6.40;;;;;;;;;;5073321;28;20210;-46
2022/11/05 12:12:27;;;;;;;10.53;7.43;;;;;;;;;;5073069;28;20642;-47
2022/11/05 12:14:56;;;;;;;9.67;7.50;;;;;;;;;;5073232;28;20219;-47
2022/11/05 12:17:32;;;;;;;15.83;8.20;;;;;;;;;;5073227;28;20670;-46
2022/11/05 12:20:09;;;;;;;14.23;8.20;;;;;;;;;;5073101;28;20725;-47
2022/11/05 12:22:41;;;;;;;10.53;8.50;;;;;;;;;;5073100;28;20727;-47
2022/11/05 12:25:14;;;;;;;12.50;9.03;;;;;;;;;;5072928;28;20212;-47
2022/11/05 12:27:50;;;;;;;12.57;9.53;;;;;;;;;;5072272;28;20219;-46
2022/11/05 12:30:17;;;;;;;12.27;9.10;;;;;;;;;;5072188;28;20295;-47
2022/11/05 12:32:48;;;;;;;11.47;9.13;;;;;;;;;;5072748;28;20229;-47
2022/11/05 12:35:22;;;;;;;10.53;8.83;;;;;;;;;;5072702;28;20314;-47
2022/11/05 12:37:52;;;;;;;13.20;9.03;;;;;;;;;;5072779;28;20227;-47
2022/11/05 12:40:33;;;;;;;11.07;8.50;;;;;;;;;;5072249;28;20269;-47
2022/11/05 12:43:03;;;;;;;10.90;8.23;;;;;;;;;;5068844;28;20291;-47
2022/11/05 12:45:36;;;;;;;12.20;8.67;;;;;;;;;;5071805;28;20195;-47
2022/11/05 12:48:10;;;;;;;11.30;8.63;;;;;;;;;;5072563;28;20207;-47
2022/11/05 12:50:42;;;;;;;11.20;7.97;;;;;;;;;;5072276;28;20683;-46
2022/11/05 12:53:26;;;;;;;13.33;9.30;;;;;;;;;;5071733;28;20200;-47
2022/11/05 12:55:53;;;;;;;11.33;9.00;;;;;;;;;;5072581;28;20231;-46
2022/11/05 12:58:21;;;;;;;12.90;9.10;;;;;;;;;;5072328;28;20183;-47
2022/11/05 13:00:49;;;;;;;12.43;8.93;;;;;;;;;;5072354;28;20204;-47
2022/11/05 13:03:20;;;;;;;11.43;8.70;;;;;;;;;;5072212;28;20203;-47
2022/11/05 13:05:49;;;;;;;12.87;8.70;;;;;;;;;;5072332;28;20235;-47
2022/11/05 13:08:18;;;;;;;10.73;8.10;;;;;;;;;;5071632;28;20219;-46
2022/11/05 13:10:45;;;;;;;14.97;8.80;;;;;;;;;;5071875;28;20188;-47
2022/11/05 13:13:14;;;;;;;10.97;8.47;;;;;;;;;;5072027;28;20723;-47
2022/11/05 13:15:43;;;;;;;12.30;8.23;;;;;;;;;;5071947;28;20314;-47
2022/11/05 13:18:11;;;;;;;11.23;8.47;;;;;;;;;;5071921;28;20561;-46
2022/11/05 13:20:39;;;;;;;12.03;8.10;;;;;;;;;;5070693;28;20207;-47
2022/11/05 13:23:11;;;;;;;10.27;7.80;;;;;;;;;;5071257;28;20227;-48
2022/11/05 13:25:40;;;;;;;9.77;8.23;;;;;;;;;;5071626;28;20272;-47
2022/11/05 13:28:10;;;;;;;11.00;8.40;;;;;;;;;;5071370;28;20234;-47
2022/11/05 13:30:37;;;;;;;11.67;7.90;;;;;;;;;;5070964;28;20187;-47
2022/11/05 13:33:04;;;;;;;9.17;7.50;;;;;;;;;;5070448;28;20792;-47
2022/11/05 13:35:32;;;;;;;11.93;7.93;;;;;;;;;;5071501;28;20227;-47
2022/11/05 13:41:05;;;;;;;9.67;7.73;;;;;;;;;;5080946;28;20276;-47
2022/11/05 13:43:53;;;;;;;9.60;6.77;;;;;;;;;;5071252;28;20203;-47
2022/11/05 13:46:29;;;;;;;9.73;6.30;;;;;;;;;;5065749;28;20623;-47
2022/11/05 13:49:06;;;;;;;9.50;6.63;;;;;;;;;;5070194;28;20245;-47
2022/11/05 13:51:39;;;;;;;7.57;6.17;;;;;;;;;;5070696;28;20705;-47
2022/11/05 13:54:11;;;;;;;7.20;6.17;;;;;;;;;;5071765;28;20196;-47
2022/11/05 13:56:49;;;;;;;7.13;6.03;;;;;;;;;;5071770;28;20227;-47
2022/11/05 13:59:39;;;;;;;6.50;5.77;;;;;;;;;;5071593;28;20210;-47
2022/11/05 14:02:13;;;;;;;9.03;5.80;;;;;;;;;;5071617;28;20646;-47
2022/11/05 14:04:40;;;;;;;7.10;5.47;;;;;;;;;;5071866;28;20272;-47
2022/11/05 14:07:07;;;;;;;7.17;5.60;;;;;;;;;;5071783;28;20205;-47
2022/11/05 14:09:34;;;;;;;7.77;5.57;;;;;;;;;;5071500;28;20273;-47
2022/11/05 14:12:03;;;;;;;7.13;5.47;;;;;;;;;;5071748;28;20234;-47
2022/11/05 14:14:30;;;;;;;8.07;5.07;;;;;;;;;;5071263;28;20686;-47
2022/11/05 14:17:11;;;;;;;7.27;5.70;;;;;;;;;;5071620;28;20207;-47
2022/11/05 14:19:49;;;;;;;8.90;5.80;;;;;;;;;;5071458;28;20665;-47
2022/11/05 14:22:28;;;;;;;7.40;6.00;;;;;;;;;;5075700;28;20385;-46
2022/11/05 14:24:54;;;;;;;7.30;5.50;;;;;;;;;;5075833;28;20202;-47
2022/11/05 14:27:39;;;;;;;5.57;5.07;;;;;;;;;;5075500;28;20199;-47
2022/11/05 14:30:20;;;;;;;6.03;5.43;;;;;;;;;;5075549;28;20207;-47
2022/11/05 14:32:49;;;;;;;7.50;5.20;;;;;;;;;;5075287;28;20195;-46
2022/11/05 14:35:33;;;;;;;7.47;5.27;;;;;;;;;;5075078;28;20731;-47
2022/11/05 14:37:59;;;;;;;5.77;5.10;;;;;;;;;;5075503;28;20199;-46
2022/11/05 14:40:28;;;;;;;7.00;5.00;;;;;;;;;;5075431;28;20211;-47
2022/11/05 14:42:56;;;;;;;6.07;5.23;;;;;;;;;;5075144;28;20195;-47
2022/11/05 14:45:26;;;;;;;6.60;5.07;;;;;;;;;;5075043;28;20206;-47
2022/11/05 14:47:54;;;;;;;7.97;5.37;;;;;;;;;;5075176;28;20227;-47
2022/11/05 14:50:22;;;;;;;7.57;5.00;;;;;;;;;;5074808;28;20701;-46
2022/11/05 14:52:50;;;;;;;9.17;5.50;;;;;;;;;;5075190;28;20203;-46
2022/11/05 14:55:24;;;;;;;7.40;4.73;;;;;;;;;;5074843;28;20217;-46
2022/11/05 14:58:02;;;;;;;6.80;5.17;;;;;;;;;;5075007;28;20661;-46
2022/11/05 15:00:42;;;;;;;8.47;5.90;;;;;;;;;;5074776;28;20203;-46
2022/11/05 15:03:23;;;;;;;7.80;5.93;;;;;;;;;;5074926;28;20673;-46
2022/11/05 15:05:50;;;;;;;8.97;5.00;;;;;;;;;;5074718;28;20657;-47
2022/11/05 15:08:35;;;;;;;11.93;5.50;;;;;;;;;;5074677;28;20238;-46
2022/11/05 15:11:08;;;;;;;6.57;4.80;;;;;;;;;;5074802;28;20195;-45
2022/11/05 15:13:40;;;;;;;6.50;4.70;;;;;;;;;;5074769;28;20203;-45
2022/11/05 15:16:06;;;;;;;8.40;4.50;;;;;;;;;;5074554;28;20560;-45
2022/11/05 15:18:33;;;;;;;6.97;4.60;;;;;;;;;;5074544;28;20203;-47
2022/11/05 15:21:01;;;;;;;6.87;4.60;;;;;;;;;;5074594;28;20202;-46
2022/11/05 15:23:29;;;;;;;7.67;4.73;;;;;;;;;;5074516;28;20203;-46
2022/11/05 15:26:01;;;;;;;8.30;4.97;;;;;;;;;;5074336;28;20200;-46
2022/11/05 15:28:30;;;;;;;6.83;5.23;;;;;;;;;;5074386;28;20191;-46
2022/11/05 15:31:00;;;;;;;10.07;5.67;;;;;;;;;;5074402;28;20203;-47
2022/11/05 15:33:26;;;;;;;8.27;4.97;;;;;;;;;;5073135;28;20236;-46
2022/11/05 15:35:52;;;;;;;10.93;5.33;;;;;;;;;;5074225;28;20510;-47
2022/11/05 15:38:25;;;;;;;8.80;5.63;;;;;;;;;;5074264;28;20286;-46